createdAt,value
2019-02-09T00:00:04.772Z,5.10
2019-02-09T00:01:04.863Z,5.10
2019-02-09T00:02:04.929Z,5.10
2019-02-09T00:03:04.569Z,5.10
2019-02-09T00:04:04.657Z,5.10
2019-02-09T00:05:04.657Z,5.10
2019-02-09T00:06:04.351Z,5.10
2019-02-09T00:07:04.844Z,5.10
2019-02-09T00:08:05.235Z,5.10
2019-02-09T00:09:04.591Z,5.10
2019-02-09T00:10:04.611Z,5.00
2019-02-09T00:11:05.213Z,5.00
2019-02-09T00:12:04.630Z,5.00
2019-02-09T00:13:04.749Z,5.00
2019-02-09T00:14:04.806Z,5.00
2019-02-09T00:15:04.427Z,5.00
2019-02-09T00:16:04.891Z,5.00
2019-02-09T00:17:04.236Z,5.00
2019-02-09T00:18:04.673Z,5.00
2019-02-09T00:19:04.643Z,4.90
2019-02-09T00:20:05.209Z,4.90
2019-02-09T00:21:04.642Z,4.90
2019-02-09T00:22:05.068Z,4.90
2019-02-09T00:23:04.292Z,4.90
2019-02-09T00:24:04.355Z,4.90
2019-02-09T00:25:04.838Z,4.90
2019-02-09T00:26:04.852Z,4.90
2019-02-09T00:27:05.144Z,4.90
2019-02-09T00:28:04.438Z,4.90
2019-02-09T00:29:09.835Z,4.90
2019-02-09T00:30:04.235Z,4.90
2019-02-09T00:31:04.935Z,4.80
2019-02-09T00:32:05.032Z,4.80
2019-02-09T00:33:05.024Z,4.80
2019-02-09T00:34:04.211Z,4.80
2019-02-09T00:35:04.246Z,4.80
2019-02-09T00:36:04.377Z,4.80
2019-02-09T00:37:04.390Z,4.80
2019-02-09T00:38:04.606Z,4.80
2019-02-09T00:39:05.221Z,4.80
2019-02-09T00:40:04.318Z,4.80
2019-02-09T00:41:04.695Z,4.80
2019-02-09T00:42:05.138Z,4.80
2019-02-09T00:43:04.387Z,4.80
2019-02-09T00:44:04.361Z,4.70
2019-02-09T00:45:04.378Z,4.70
2019-02-09T00:46:05.117Z,4.70
2019-02-09T00:47:04.237Z,4.70
2019-02-09T00:48:04.430Z,4.70
2019-02-09T00:49:04.834Z,4.70
2019-02-09T00:50:04.271Z,4.70
2019-02-09T00:51:04.608Z,4.70
2019-02-09T00:52:05.106Z,4.70
2019-02-09T00:53:04.564Z,4.70
2019-02-09T00:54:04.998Z,4.70
2019-02-09T00:55:09.370Z,4.60
2019-02-09T00:56:04.743Z,4.60
2019-02-09T00:57:04.898Z,4.60
2019-02-09T00:58:04.427Z,4.60
2019-02-09T00:59:04.981Z,4.60
2019-02-09T01:00:04.893Z,4.60
2019-02-09T01:01:04.950Z,4.60
2019-02-09T01:02:04.587Z,4.60
2019-02-09T01:03:04.957Z,4.60
2019-02-09T01:04:05.231Z,4.60
2019-02-09T01:05:05.107Z,4.60
2019-02-09T01:06:04.457Z,4.60
2019-02-09T01:07:04.522Z,4.60
2019-02-09T01:08:04.889Z,4.60
2019-02-09T01:09:04.198Z,4.60
2019-02-09T01:10:04.320Z,4.60
2019-02-09T01:11:04.417Z,4.60
2019-02-09T01:12:04.414Z,4.60
2019-02-09T01:13:05.059Z,4.60
2019-02-09T01:14:04.297Z,4.60
2019-02-09T01:15:04.334Z,4.60
2019-02-09T01:16:04.757Z,4.60
2019-02-09T01:17:05.072Z,4.60
2019-02-09T01:18:05.163Z,4.60
2019-02-09T01:19:04.196Z,4.60
2019-02-09T01:20:04.547Z,4.50
2019-02-09T01:21:04.986Z,4.50
2019-02-09T01:22:05.128Z,4.60
2019-02-09T01:23:05.127Z,4.50
2019-02-09T01:24:04.295Z,4.60
2019-02-09T01:25:04.631Z,4.50
2019-02-09T01:26:04.715Z,4.60
2019-02-09T01:27:04.747Z,4.60
2019-02-09T01:28:04.970Z,4.60
2019-02-09T01:29:09.264Z,4.60
2019-02-09T01:30:04.580Z,4.60
2019-02-09T01:31:04.180Z,4.60
2019-02-09T01:32:04.333Z,4.60
2019-02-09T01:33:04.573Z,4.60
2019-02-09T01:34:04.638Z,4.60
2019-02-09T01:35:04.858Z,4.60
2019-02-09T01:36:04.509Z,4.70
2019-02-09T01:37:04.744Z,4.70
2019-02-09T01:38:04.328Z,4.70
2019-02-09T01:39:04.444Z,4.70
2019-02-09T01:40:04.855Z,4.70
2019-02-09T01:41:04.384Z,4.70
2019-02-09T01:42:04.975Z,4.70
2019-02-09T01:43:05.125Z,4.70
2019-02-09T01:44:05.134Z,4.70
2019-02-09T01:45:05.152Z,4.70
2019-02-09T01:46:05.246Z,4.70
2019-02-09T01:47:04.261Z,4.70
2019-02-09T01:48:04.726Z,4.70
2019-02-09T01:49:09.295Z,4.70
2019-02-09T01:50:04.644Z,4.70
2019-02-09T01:51:04.979Z,4.70
2019-02-09T01:52:05.025Z,4.70
2019-02-09T01:53:04.434Z,4.70
2019-02-09T01:54:04.669Z,4.70
2019-02-09T01:55:04.810Z,4.70
2019-02-09T01:56:04.903Z,4.70
2019-02-09T01:57:05.077Z,4.70
2019-02-09T01:58:04.284Z,4.70
2019-02-09T01:59:04.351Z,4.70
2019-02-09T02:00:10.296Z,4.70
2019-02-09T02:01:04.260Z,4.70
2019-02-09T02:02:04.891Z,4.70
2019-02-09T02:03:04.976Z,4.60
2019-02-09T02:04:04.562Z,4.60
2019-02-09T02:05:04.543Z,4.60
2019-02-09T02:06:05.059Z,4.60
2019-02-09T02:07:04.459Z,4.60
2019-02-09T02:08:04.426Z,4.60
2019-02-09T02:09:04.910Z,4.60
2019-02-09T02:10:04.942Z,4.50
2019-02-09T02:11:04.413Z,4.60
2019-02-09T02:12:05.070Z,4.50
2019-02-09T02:13:04.634Z,4.50
2019-02-09T02:14:04.174Z,4.50
2019-02-09T02:15:04.399Z,4.50
2019-02-09T02:16:04.884Z,4.50
2019-02-09T02:17:04.430Z,4.50
2019-02-09T02:18:04.574Z,4.50
2019-02-09T02:19:05.018Z,4.50
2019-02-09T02:20:05.033Z,4.50
2019-02-09T02:21:04.316Z,4.50
2019-02-09T02:22:04.965Z,4.50
2019-02-09T02:23:05.148Z,4.50
2019-02-09T02:24:05.210Z,4.50
2019-02-09T02:25:04.560Z,4.50
2019-02-09T02:26:05.067Z,4.50
2019-02-09T02:27:04.847Z,4.50
2019-02-09T02:28:05.141Z,4.50
2019-02-09T02:29:09.628Z,4.50
2019-02-09T02:30:04.998Z,4.60
2019-02-09T02:31:04.573Z,4.60
2019-02-09T02:32:04.698Z,4.60
2019-02-09T02:33:04.928Z,4.60
2019-02-09T02:34:04.558Z,4.60
2019-02-09T02:35:04.627Z,4.60
2019-02-09T02:36:04.608Z,4.60
2019-02-09T02:37:04.271Z,4.60
2019-02-09T02:38:04.871Z,4.60
2019-02-09T02:39:04.459Z,4.70
2019-02-09T02:40:04.541Z,4.70
2019-02-09T02:41:04.825Z,4.70
2019-02-09T02:42:04.416Z,4.70
2019-02-09T02:43:04.933Z,4.70
2019-02-09T02:44:04.211Z,4.70
2019-02-09T02:45:04.387Z,4.70
2019-02-09T02:46:04.346Z,4.70
2019-02-09T02:47:04.565Z,4.80
2019-02-09T02:48:04.524Z,4.80
2019-02-09T02:49:04.534Z,4.80
2019-02-09T02:50:05.116Z,4.80
2019-02-09T02:51:05.161Z,4.80
2019-02-09T02:52:04.215Z,4.80
2019-02-09T02:53:04.399Z,4.80
2019-02-09T02:54:04.644Z,4.80
2019-02-09T02:55:04.680Z,4.80
2019-02-09T02:56:05.055Z,4.80
2019-02-09T02:57:05.020Z,4.80
2019-02-09T02:58:04.987Z,4.80
2019-02-09T02:59:04.426Z,4.80
2019-02-09T03:00:04.467Z,4.80
2019-02-09T03:01:04.938Z,4.80
2019-02-09T03:02:04.982Z,4.70
2019-02-09T03:03:04.482Z,4.70
2019-02-09T03:04:04.735Z,4.70
2019-02-09T03:05:04.993Z,4.70
2019-02-09T03:06:04.581Z,4.70
2019-02-09T03:07:04.995Z,4.70
2019-02-09T03:08:04.563Z,4.70
2019-02-09T03:09:05.109Z,4.60
2019-02-09T03:10:05.063Z,4.60
2019-02-09T03:11:04.305Z,4.60
2019-02-09T03:12:04.505Z,4.60
2019-02-09T03:13:04.498Z,4.60
2019-02-09T03:14:04.733Z,4.60
2019-02-09T03:15:05.007Z,4.60
2019-02-09T03:16:04.666Z,4.60
2019-02-09T03:17:04.732Z,4.60
2019-02-09T03:18:04.999Z,4.60
2019-02-09T03:19:05.149Z,4.60
2019-02-09T03:20:04.564Z,4.60
2019-02-09T03:21:04.775Z,4.60
2019-02-09T03:22:04.850Z,4.60
2019-02-09T03:23:05.022Z,4.60
2019-02-09T03:24:05.140Z,4.60
2019-02-09T03:25:04.532Z,4.50
2019-02-09T03:26:04.537Z,4.60
2019-02-09T03:27:04.586Z,4.50
2019-02-09T03:28:04.679Z,4.60
2019-02-09T03:29:10.122Z,4.60
2019-02-09T03:30:04.559Z,4.60
2019-02-09T03:31:04.727Z,4.60
2019-02-09T03:32:05.053Z,4.60
2019-02-09T03:33:04.443Z,4.60
2019-02-09T03:34:04.631Z,4.60
2019-02-09T03:35:04.934Z,4.60
2019-02-09T03:36:04.984Z,4.60
2019-02-09T03:37:04.634Z,4.60
2019-02-09T03:38:04.653Z,4.60
2019-02-09T03:39:06.051Z,4.60
2019-02-09T03:40:04.755Z,4.60
2019-02-09T03:41:05.067Z,4.60
2019-02-09T03:42:04.641Z,4.60
2019-02-09T03:43:04.782Z,4.60
2019-02-09T03:44:05.111Z,4.60
2019-02-09T03:45:04.610Z,4.60
2019-02-09T03:46:04.774Z,4.50
2019-02-09T03:47:04.902Z,4.50
2019-02-09T03:48:04.338Z,4.50
2019-02-09T03:49:04.222Z,4.50
2019-02-09T03:50:04.979Z,4.50
2019-02-09T03:51:04.274Z,4.50
2019-02-09T03:52:04.362Z,4.50
2019-02-09T03:53:04.383Z,4.60
2019-02-09T03:54:04.552Z,4.60
2019-02-09T03:55:04.653Z,4.60
2019-02-09T03:56:04.693Z,4.60
2019-02-09T03:57:04.806Z,4.60
2019-02-09T03:58:04.998Z,4.60
2019-02-09T03:59:04.941Z,4.60
2019-02-09T04:00:04.994Z,4.60
2019-02-09T04:01:04.248Z,4.60
2019-02-09T04:02:04.341Z,4.60
2019-02-09T04:03:09.318Z,4.70
2019-02-09T04:04:04.494Z,4.70
2019-02-09T04:05:05.075Z,4.60
2019-02-09T04:06:04.179Z,4.70
2019-02-09T04:07:04.203Z,4.60
2019-02-09T04:08:04.919Z,4.60
2019-02-09T04:09:04.320Z,4.60
2019-02-09T04:10:04.484Z,4.60
2019-02-09T04:11:04.678Z,4.60
2019-02-09T04:12:04.820Z,4.60
2019-02-09T04:13:04.448Z,4.60
2019-02-09T04:14:04.548Z,4.60
2019-02-09T04:15:04.562Z,4.60
2019-02-09T04:16:05.101Z,4.60
2019-02-09T04:17:05.273Z,4.60
2019-02-09T04:18:04.243Z,4.60
2019-02-09T04:19:04.315Z,4.60
2019-02-09T04:20:04.754Z,4.60
2019-02-09T04:21:05.004Z,4.60
2019-02-09T04:22:04.890Z,4.60
2019-02-09T04:23:05.233Z,4.60
2019-02-09T04:24:04.849Z,4.60
2019-02-09T04:25:04.942Z,4.60
2019-02-09T04:26:04.893Z,4.60
2019-02-09T04:27:05.158Z,4.60
2019-02-09T04:28:04.191Z,4.60
2019-02-09T04:29:04.815Z,4.60
2019-02-09T04:30:04.996Z,4.60
2019-02-09T04:31:06.342Z,4.60
2019-02-09T04:32:04.599Z,4.60
2019-02-09T04:33:04.721Z,4.60
2019-02-09T04:34:04.990Z,4.60
2019-02-09T04:35:04.639Z,4.60
2019-02-09T04:36:04.692Z,4.60
2019-02-09T04:37:09.991Z,4.60
2019-02-09T04:38:04.370Z,4.60
2019-02-09T04:39:04.932Z,4.60
2019-02-09T04:40:04.657Z,4.60
2019-02-09T04:41:04.868Z,4.70
2019-02-09T04:42:05.143Z,4.70
2019-02-09T04:43:04.602Z,4.70
2019-02-09T04:44:04.709Z,4.70
2019-02-09T04:45:04.241Z,4.70
2019-02-09T04:46:04.389Z,4.70
2019-02-09T04:47:04.380Z,4.70
2019-02-09T04:48:04.566Z,4.70
2019-02-09T04:49:04.845Z,4.70
2019-02-09T04:50:04.541Z,4.70
2019-02-09T04:51:04.684Z,4.70
2019-02-09T04:52:05.052Z,4.70
2019-02-09T04:53:04.954Z,4.70
2019-02-09T04:54:04.799Z,4.70
2019-02-09T04:55:04.227Z,4.70
2019-02-09T04:56:04.940Z,4.70
2019-02-09T04:57:04.986Z,4.70
2019-02-09T04:58:04.291Z,4.70
2019-02-09T04:59:04.733Z,4.70
2019-02-09T05:00:04.970Z,4.70
2019-02-09T05:01:13.513Z,4.70
2019-02-09T05:02:04.681Z,4.70
2019-02-09T05:03:05.237Z,4.70
2019-02-09T05:04:04.724Z,4.70
2019-02-09T05:05:05.023Z,4.70
2019-02-09T05:06:04.505Z,4.70
2019-02-09T05:07:05.218Z,4.70
2019-02-09T05:08:04.491Z,4.70
2019-02-09T05:09:04.620Z,4.70
2019-02-09T05:10:04.704Z,4.70
2019-02-09T05:11:04.970Z,4.70
2019-02-09T05:12:04.542Z,4.70
2019-02-09T05:13:04.602Z,4.70
2019-02-09T05:14:05.145Z,4.70
2019-02-09T05:15:04.184Z,4.70
2019-02-09T05:16:04.800Z,4.70
2019-02-09T05:17:04.332Z,4.70
2019-02-09T05:18:04.407Z,4.70
2019-02-09T05:19:04.506Z,4.70
2019-02-09T05:20:04.649Z,4.70
2019-02-09T05:21:04.671Z,4.70
2019-02-09T05:22:04.181Z,4.70
2019-02-09T05:23:04.359Z,4.70
2019-02-09T05:24:04.779Z,4.70
2019-02-09T05:25:05.228Z,4.70
2019-02-09T05:26:04.666Z,4.70
2019-02-09T05:27:04.342Z,4.60
2019-02-09T05:28:04.690Z,4.70
2019-02-09T05:29:04.822Z,4.70
2019-02-09T05:30:04.967Z,4.70
2019-02-09T05:31:04.483Z,4.70
2019-02-09T05:32:05.120Z,4.70
2019-02-09T05:33:04.480Z,4.70
2019-02-09T05:34:04.841Z,4.70
2019-02-09T05:35:04.475Z,4.70
2019-02-09T05:36:04.535Z,4.70
2019-02-09T05:37:04.588Z,4.70
2019-02-09T05:38:05.135Z,4.70
2019-02-09T05:39:04.419Z,4.60
2019-02-09T05:40:04.447Z,4.70
2019-02-09T05:41:04.582Z,4.70
2019-02-09T05:42:04.607Z,4.60
2019-02-09T05:43:04.210Z,4.60
2019-02-09T05:44:04.511Z,4.70
2019-02-09T05:45:10.025Z,4.70
2019-02-09T05:46:04.469Z,4.70
2019-02-09T05:47:04.915Z,4.70
2019-02-09T05:48:04.973Z,4.70
2019-02-09T05:49:04.604Z,4.70
2019-02-09T05:50:04.838Z,4.70
2019-02-09T05:51:04.201Z,4.70
2019-02-09T05:52:04.312Z,4.70
2019-02-09T05:53:04.515Z,4.70
2019-02-09T05:54:04.683Z,4.70
2019-02-09T05:55:04.338Z,4.70
2019-02-09T05:56:05.073Z,4.80
2019-02-09T05:57:04.211Z,4.80
2019-02-09T05:58:04.584Z,4.80
2019-02-09T05:59:04.574Z,4.80
2019-02-09T06:00:04.678Z,4.80
2019-02-09T06:01:04.271Z,4.80
2019-02-09T06:02:04.522Z,4.80
2019-02-09T06:03:04.886Z,4.80
2019-02-09T06:04:04.962Z,4.80
2019-02-09T06:05:04.928Z,4.80
2019-02-09T06:06:05.087Z,4.80
2019-02-09T06:07:04.346Z,4.80
2019-02-09T06:08:04.580Z,4.80
2019-02-09T06:09:04.460Z,4.80
2019-02-09T06:10:05.043Z,4.70
2019-02-09T06:11:04.278Z,4.80
2019-02-09T06:12:04.328Z,4.70
2019-02-09T06:13:04.881Z,4.70
2019-02-09T06:14:04.283Z,4.70
2019-02-09T06:15:05.055Z,4.70
2019-02-09T06:16:05.205Z,4.70
2019-02-09T06:17:04.649Z,4.70
2019-02-09T06:18:04.763Z,4.70
2019-02-09T06:19:05.000Z,4.70
2019-02-09T06:20:05.156Z,4.70
2019-02-09T06:21:04.195Z,4.70
2019-02-09T06:22:04.434Z,4.70
2019-02-09T06:23:04.655Z,4.70
2019-02-09T06:24:04.658Z,4.70
2019-02-09T06:25:04.876Z,4.70
2019-02-09T06:26:05.052Z,4.70
2019-02-09T06:27:04.912Z,4.70
2019-02-09T06:28:04.998Z,4.70
2019-02-09T06:29:04.312Z,4.70
2019-02-09T06:30:04.413Z,4.70
2019-02-09T06:31:04.536Z,4.70
2019-02-09T06:32:04.545Z,4.70
2019-02-09T06:33:04.723Z,4.70
2019-02-09T06:34:05.261Z,4.70
2019-02-09T06:35:04.735Z,4.70
2019-02-09T06:36:04.770Z,4.70
2019-02-09T06:37:04.480Z,4.70
2019-02-09T06:38:04.627Z,4.60
2019-02-09T06:39:04.813Z,4.60
2019-02-09T06:40:04.241Z,4.70
2019-02-09T06:41:04.738Z,4.60
2019-02-09T06:42:04.379Z,4.60
2019-02-09T06:43:04.573Z,4.70
2019-02-09T06:44:04.719Z,4.60
2019-02-09T06:45:04.855Z,4.60
2019-02-09T06:46:04.867Z,4.60
2019-02-09T06:47:04.559Z,4.60
2019-02-09T06:48:04.771Z,4.60
2019-02-09T06:49:10.223Z,4.60
2019-02-09T06:50:04.687Z,4.60
2019-02-09T06:51:04.757Z,4.60
2019-02-09T06:52:04.380Z,4.60
2019-02-09T06:53:04.715Z,4.60
2019-02-09T06:54:04.865Z,4.60
2019-02-09T06:55:04.189Z,4.60
2019-02-09T06:56:04.811Z,4.60
2019-02-09T06:57:04.825Z,4.60
2019-02-09T06:58:04.567Z,4.60
2019-02-09T06:59:04.761Z,4.60
2019-02-09T07:00:04.302Z,4.60
2019-02-09T07:01:04.468Z,4.60
2019-02-09T07:02:04.501Z,4.60
2019-02-09T07:03:04.714Z,4.60
2019-02-09T07:04:05.157Z,4.60
2019-02-09T07:05:04.334Z,4.60
2019-02-09T07:06:04.321Z,4.60
2019-02-09T07:07:04.441Z,4.60
2019-02-09T07:08:04.553Z,4.70
2019-02-09T07:09:04.556Z,4.70
2019-02-09T07:10:04.485Z,4.70
2019-02-09T07:11:04.980Z,4.70
2019-02-09T07:12:04.237Z,4.70
2019-02-09T07:13:04.511Z,4.70
2019-02-09T07:14:04.831Z,4.70
2019-02-09T07:15:04.546Z,4.70
2019-02-09T07:16:04.675Z,4.70
2019-02-09T07:17:04.263Z,4.80
2019-02-09T07:18:04.978Z,4.80
2019-02-09T07:19:04.638Z,4.80
2019-02-09T07:20:05.013Z,4.80
2019-02-09T07:21:05.159Z,4.80
2019-02-09T07:22:05.098Z,4.90
2019-02-09T07:23:04.200Z,4.90
2019-02-09T07:24:04.927Z,4.90
2019-02-09T07:25:05.199Z,4.90
2019-02-09T07:26:04.193Z,4.90
2019-02-09T07:27:04.431Z,4.90
2019-02-09T07:28:05.101Z,4.90
2019-02-09T07:29:09.660Z,5.00
2019-02-09T07:30:05.149Z,5.00
2019-02-09T07:31:04.545Z,5.00
2019-02-09T07:32:04.944Z,5.00
2019-02-09T07:33:04.453Z,5.00
2019-02-09T07:34:04.549Z,5.00
2019-02-09T07:35:05.133Z,5.00
2019-02-09T07:36:04.455Z,5.00
2019-02-09T07:37:04.781Z,5.00
2019-02-09T07:38:04.244Z,5.00
2019-02-09T07:39:04.291Z,5.00
2019-02-09T07:40:04.989Z,5.10
2019-02-09T07:41:04.475Z,5.10
2019-02-09T07:42:04.404Z,5.10
2019-02-09T07:43:04.532Z,5.10
2019-02-09T07:44:04.641Z,5.10
2019-02-09T07:45:04.684Z,5.10
2019-02-09T07:46:04.948Z,5.10
2019-02-09T07:47:04.793Z,5.10
2019-02-09T07:48:04.940Z,5.10
2019-02-09T07:49:04.493Z,5.10
2019-02-09T07:50:04.653Z,5.10
2019-02-09T07:51:05.100Z,5.10
2019-02-09T07:52:04.402Z,5.20
2019-02-09T07:53:04.855Z,5.20
2019-02-09T07:54:04.833Z,5.30
2019-02-09T07:55:04.481Z,5.30
2019-02-09T07:56:04.595Z,5.40
2019-02-09T07:57:04.986Z,5.40
2019-02-09T07:58:05.193Z,5.50
2019-02-09T07:59:04.642Z,5.60
2019-02-09T08:00:04.832Z,5.60
2019-02-09T08:01:05.756Z,5.70
2019-02-09T08:02:04.950Z,5.70
2019-02-09T08:03:04.772Z,5.80
2019-02-09T08:04:04.521Z,5.80
2019-02-09T08:05:04.361Z,5.90
2019-02-09T08:06:04.446Z,5.90
2019-02-09T08:07:04.675Z,6.00
2019-02-09T08:08:04.661Z,6.00
2019-02-09T08:09:04.428Z,6.00
2019-02-09T08:10:04.374Z,6.10
2019-02-09T08:11:09.096Z,6.10
2019-02-09T08:12:04.884Z,6.10
2019-02-09T08:13:05.120Z,6.20
2019-02-09T08:14:04.539Z,6.20
2019-02-09T08:15:04.540Z,6.20
2019-02-09T08:16:04.685Z,6.30
2019-02-09T08:17:04.985Z,6.30
2019-02-09T08:18:05.132Z,6.40
2019-02-09T08:19:04.403Z,6.40
2019-02-09T08:20:04.506Z,6.40
2019-02-09T08:21:04.569Z,6.40
2019-02-09T08:22:04.825Z,6.50
2019-02-09T08:23:04.995Z,6.50
2019-02-09T08:24:04.567Z,6.50
2019-02-09T08:25:04.713Z,6.50
2019-02-09T08:26:04.807Z,6.50
2019-02-09T08:27:04.852Z,6.50
2019-02-09T08:28:04.326Z,6.50
2019-02-09T08:29:10.064Z,6.50
2019-02-09T08:30:04.391Z,6.60
2019-02-09T08:31:04.666Z,6.60
2019-02-09T08:32:12.236Z,6.60
2019-02-09T08:33:04.496Z,6.60
2019-02-09T08:34:04.281Z,6.60
2019-02-09T08:35:04.839Z,6.60
2019-02-09T08:36:04.809Z,6.70
2019-02-09T08:37:04.843Z,6.70
2019-02-09T08:38:04.312Z,6.70
2019-02-09T08:39:04.346Z,6.70
2019-02-09T08:40:04.532Z,6.80
2019-02-09T08:41:04.670Z,6.80
2019-02-09T08:42:04.756Z,6.80
2019-02-09T08:43:04.832Z,6.80
2019-02-09T08:44:04.419Z,6.80
2019-02-09T08:45:04.512Z,6.90
2019-02-09T08:46:04.341Z,6.90
2019-02-09T08:47:04.495Z,6.90
2019-02-09T08:48:04.682Z,6.90
2019-02-09T08:49:04.512Z,7.00
2019-02-09T08:50:04.810Z,7.00
2019-02-09T08:51:04.869Z,7.00
2019-02-09T08:52:04.511Z,7.00
2019-02-09T08:53:04.498Z,7.00
2019-02-09T08:54:04.670Z,7.00
2019-02-09T08:55:05.389Z,7.00
2019-02-09T08:56:04.786Z,7.00
2019-02-09T08:57:05.132Z,7.10
2019-02-09T08:58:04.254Z,7.10
2019-02-09T08:59:04.517Z,7.00
2019-02-09T09:00:05.640Z,7.10
2019-02-09T09:01:04.366Z,7.00
2019-02-09T09:02:04.454Z,7.10
2019-02-09T09:03:04.750Z,7.10
2019-02-09T09:04:04.878Z,7.10
2019-02-09T09:05:09.502Z,7.10
2019-02-09T09:06:04.730Z,7.10
2019-02-09T09:07:05.099Z,7.10
2019-02-09T09:08:04.375Z,7.10
2019-02-09T09:09:04.484Z,7.10
2019-02-09T09:10:05.083Z,7.10
2019-02-09T09:11:04.756Z,7.10
2019-02-09T09:12:04.872Z,7.10
2019-02-09T09:13:04.854Z,7.10
2019-02-09T09:14:04.985Z,7.10
2019-02-09T09:15:05.191Z,7.10
2019-02-09T09:16:04.297Z,7.10
2019-02-09T09:17:04.349Z,7.10
2019-02-09T09:18:04.600Z,7.10
2019-02-09T09:19:04.718Z,7.10
2019-02-09T09:20:04.834Z,7.10
2019-02-09T09:21:04.808Z,7.10
2019-02-09T09:22:05.042Z,7.10
2019-02-09T09:23:05.096Z,7.10
2019-02-09T09:24:04.658Z,7.10
2019-02-09T09:25:04.762Z,7.00
2019-02-09T09:26:04.895Z,7.00
2019-02-09T09:27:04.651Z,7.00
2019-02-09T09:28:04.990Z,7.00
2019-02-09T09:29:04.968Z,7.00
2019-02-09T09:30:04.245Z,7.00
2019-02-09T09:31:04.326Z,7.00
2019-02-09T09:32:04.570Z,7.00
2019-02-09T09:33:04.822Z,7.00
2019-02-09T09:34:04.695Z,7.00
2019-02-09T09:35:04.703Z,7.00
2019-02-09T09:36:04.840Z,7.00
2019-02-09T09:37:04.994Z,7.00
2019-02-09T09:38:05.162Z,7.00
2019-02-09T09:39:04.169Z,7.00
2019-02-09T09:40:04.223Z,7.00
2019-02-09T09:41:04.304Z,7.00
2019-02-09T09:42:04.973Z,7.00
2019-02-09T09:43:05.081Z,7.00
2019-02-09T09:44:10.247Z,7.00
2019-02-09T09:45:04.593Z,7.00
2019-02-09T09:46:04.721Z,7.00
2019-02-09T09:47:05.137Z,7.00
2019-02-09T09:48:04.661Z,7.00
2019-02-09T09:49:04.167Z,7.10
2019-02-09T09:50:04.464Z,7.10
2019-02-09T09:51:04.351Z,7.10
2019-02-09T09:52:04.831Z,7.10
2019-02-09T09:53:05.071Z,7.10
2019-02-09T09:54:05.090Z,7.10
2019-02-09T09:55:04.897Z,7.10
2019-02-09T09:56:05.167Z,7.10
2019-02-09T09:57:04.707Z,7.10
2019-02-09T09:58:05.019Z,7.20
2019-02-09T09:59:05.129Z,7.20
2019-02-09T10:00:04.262Z,7.20
2019-02-09T10:01:04.473Z,7.20
2019-02-09T10:02:04.282Z,7.20
2019-02-09T10:03:04.469Z,7.20
2019-02-09T10:04:09.992Z,7.20
2019-02-09T10:05:04.415Z,7.30
2019-02-09T10:06:04.613Z,7.30
2019-02-09T10:07:04.781Z,7.30
2019-02-09T10:08:05.128Z,7.40
2019-02-09T10:09:04.264Z,7.40
2019-02-09T10:10:04.538Z,7.40
2019-02-09T10:11:04.567Z,7.40
2019-02-09T10:12:05.121Z,7.50
2019-02-09T10:13:04.202Z,7.50
2019-02-09T10:14:08.830Z,7.50
2019-02-09T10:15:04.815Z,7.50
2019-02-09T10:16:04.832Z,7.50
2019-02-09T10:17:05.048Z,7.50
2019-02-09T10:18:04.491Z,7.50
2019-02-09T10:19:04.557Z,7.50
2019-02-09T10:20:04.545Z,7.50
2019-02-09T10:21:04.276Z,7.60
2019-02-09T10:22:04.383Z,7.60
2019-02-09T10:23:04.751Z,7.60
2019-02-09T10:24:04.455Z,7.60
2019-02-09T10:25:04.573Z,7.60
2019-02-09T10:26:04.751Z,7.60
2019-02-09T10:27:04.854Z,7.70
2019-02-09T10:28:05.225Z,7.70
2019-02-09T10:29:09.442Z,7.70
2019-02-09T10:30:04.979Z,7.80
2019-02-09T10:31:04.969Z,7.80
2019-02-09T10:32:05.116Z,7.80
2019-02-09T10:33:04.238Z,7.90
2019-02-09T10:34:04.342Z,7.90
2019-02-09T10:35:04.396Z,8.00
2019-02-09T10:36:04.543Z,8.00
2019-02-09T10:37:04.849Z,8.00
2019-02-09T10:38:05.162Z,8.10
2019-02-09T10:39:05.212Z,8.10
2019-02-09T10:40:04.569Z,8.10
2019-02-09T10:41:04.632Z,8.20
2019-02-09T10:42:04.714Z,8.20
2019-02-09T10:43:04.812Z,8.20
2019-02-09T10:44:04.955Z,8.30
2019-02-09T10:45:05.058Z,8.30
2019-02-09T10:46:04.199Z,8.30
2019-02-09T10:47:04.290Z,8.30
2019-02-09T10:48:04.916Z,8.40
2019-02-09T10:49:09.877Z,8.40
2019-02-09T10:50:04.331Z,8.40
2019-02-09T10:51:04.390Z,8.50
2019-02-09T10:52:04.649Z,8.50
2019-02-09T10:53:05.043Z,8.60
2019-02-09T10:54:05.196Z,8.60
2019-02-09T10:55:04.249Z,8.70
2019-02-09T10:56:04.390Z,8.70
2019-02-09T10:57:04.609Z,8.70
2019-02-09T10:58:04.538Z,8.80
2019-02-09T10:59:04.626Z,8.80
2019-02-09T11:00:04.810Z,8.80
2019-02-09T11:01:05.217Z,8.80
2019-02-09T11:02:04.210Z,8.80
2019-02-09T11:03:04.866Z,8.80
2019-02-09T11:04:04.220Z,8.80
2019-02-09T11:05:04.419Z,8.80
2019-02-09T11:06:04.810Z,8.90
2019-02-09T11:07:04.878Z,8.90
2019-02-09T11:08:04.965Z,8.90
2019-02-09T11:09:04.557Z,8.90
2019-02-09T11:10:05.146Z,9.00
2019-02-09T11:11:05.191Z,9.00
2019-02-09T11:12:04.446Z,9.00
2019-02-09T11:13:04.829Z,9.00
2019-02-09T11:14:04.428Z,9.00
2019-02-09T11:15:04.500Z,9.00
2019-02-09T11:16:04.589Z,9.00
2019-02-09T11:17:04.952Z,9.00
2019-02-09T11:18:05.045Z,9.10
2019-02-09T11:19:04.713Z,9.10
2019-02-09T11:20:04.656Z,9.10
2019-02-09T11:21:05.007Z,9.20
2019-02-09T11:22:05.076Z,9.20
2019-02-09T11:23:04.213Z,9.20
2019-02-09T11:24:04.598Z,9.20
2019-02-09T11:25:04.401Z,9.20
2019-02-09T11:26:04.962Z,9.20
2019-02-09T11:27:04.537Z,9.20
2019-02-09T11:28:04.934Z,9.20
2019-02-09T11:29:10.147Z,9.20
2019-02-09T11:30:04.548Z,9.20
2019-02-09T11:31:04.708Z,9.30
2019-02-09T11:32:04.750Z,9.30
2019-02-09T11:33:04.798Z,9.30
2019-02-09T11:34:04.551Z,9.30
2019-02-09T11:35:04.750Z,9.40
2019-02-09T11:36:04.967Z,9.40
2019-02-09T11:37:05.065Z,9.40
2019-02-09T11:38:05.115Z,9.40
2019-02-09T11:39:04.678Z,9.40
2019-02-09T11:40:04.907Z,9.40
2019-02-09T11:41:05.067Z,9.40
2019-02-09T11:42:04.874Z,9.40
2019-02-09T11:43:04.794Z,9.40
2019-02-09T11:44:04.349Z,9.40
2019-02-09T11:45:04.397Z,9.40
2019-02-09T11:46:04.576Z,9.40
2019-02-09T11:47:05.112Z,9.40
2019-02-09T11:48:04.185Z,9.40
2019-02-09T11:49:09.980Z,9.40
2019-02-09T11:50:04.365Z,9.40
2019-02-09T11:51:04.182Z,9.50
2019-02-09T11:52:04.726Z,9.50
2019-02-09T11:53:04.884Z,9.50
2019-02-09T11:54:04.930Z,9.50
2019-02-09T11:55:04.892Z,9.50
2019-02-09T11:56:05.092Z,9.50
2019-02-09T11:57:05.293Z,9.50
2019-02-09T11:58:04.684Z,9.50
2019-02-09T11:59:04.997Z,9.50
2019-02-09T12:00:04.462Z,9.50
2019-02-09T12:01:04.834Z,9.50
2019-02-09T12:02:05.193Z,9.50
2019-02-09T12:03:13.814Z,9.40
2019-02-09T12:04:04.483Z,9.40
2019-02-09T12:05:05.056Z,9.40
2019-02-09T12:06:05.060Z,9.40
2019-02-09T12:07:04.570Z,9.40
2019-02-09T12:08:04.839Z,9.30
2019-02-09T12:09:05.003Z,9.30
2019-02-09T12:10:04.960Z,9.30
2019-02-09T12:11:04.253Z,9.30
2019-02-09T12:12:04.478Z,9.30
2019-02-09T12:13:04.849Z,9.30
2019-02-09T12:14:05.102Z,9.20
2019-02-09T12:15:04.398Z,9.20
2019-02-09T12:16:04.500Z,9.20
2019-02-09T12:17:04.874Z,9.10
2019-02-09T12:18:04.973Z,9.10
2019-02-09T12:19:04.332Z,9.10
2019-02-09T12:20:04.604Z,9.10
2019-02-09T12:21:05.052Z,9.00
2019-02-09T12:22:04.746Z,9.00
2019-02-09T12:23:04.740Z,9.00
2019-02-09T12:24:05.099Z,9.00
2019-02-09T12:25:04.422Z,9.00
2019-02-09T12:26:04.588Z,9.00
2019-02-09T12:27:04.416Z,8.90
2019-02-09T12:28:04.677Z,8.90
2019-02-09T12:29:10.046Z,9.00
2019-02-09T12:30:04.392Z,9.00
2019-02-09T12:31:04.572Z,9.00
2019-02-09T12:32:04.595Z,9.00
2019-02-09T12:33:04.784Z,9.00
2019-02-09T12:34:04.906Z,9.00
2019-02-09T12:35:05.011Z,9.00
2019-02-09T12:36:04.374Z,9.00
2019-02-09T12:37:04.541Z,9.00
2019-02-09T12:38:04.631Z,9.00
2019-02-09T12:39:05.126Z,9.00
2019-02-09T12:40:05.148Z,9.00
2019-02-09T12:41:04.425Z,9.00
2019-02-09T12:42:04.830Z,9.00
2019-02-09T12:43:05.082Z,9.00
2019-02-09T12:44:04.505Z,9.00
2019-02-09T12:45:04.511Z,9.00
2019-02-09T12:46:05.261Z,9.10
2019-02-09T12:47:04.302Z,9.10
2019-02-09T12:48:04.484Z,9.00
2019-02-09T12:49:04.633Z,9.10
2019-02-09T12:50:04.714Z,9.10
2019-02-09T12:51:04.248Z,9.10
2019-02-09T12:52:09.633Z,9.10
2019-02-09T12:53:05.022Z,9.00
2019-02-09T12:54:04.578Z,9.00
2019-02-09T12:55:04.705Z,9.00
2019-02-09T12:56:04.659Z,9.00
2019-02-09T12:57:04.942Z,9.00
2019-02-09T12:58:05.101Z,9.00
2019-02-09T12:59:04.353Z,9.00
2019-02-09T13:00:05.868Z,9.00
2019-02-09T13:01:04.676Z,9.00
2019-02-09T13:02:04.187Z,9.00
2019-02-09T13:03:04.338Z,9.00
2019-02-09T13:04:04.746Z,9.00
2019-02-09T13:05:04.233Z,9.00
2019-02-09T13:06:05.062Z,9.00
2019-02-09T13:07:04.562Z,9.00
2019-02-09T13:08:04.980Z,9.10
2019-02-09T13:09:04.235Z,9.10
2019-02-09T13:10:04.270Z,9.00
2019-02-09T13:11:04.908Z,9.10
2019-02-09T13:12:04.913Z,9.00
2019-02-09T13:13:04.546Z,9.10
2019-02-09T13:14:04.682Z,9.00
2019-02-09T13:15:04.579Z,9.00
2019-02-09T13:16:04.820Z,9.00
2019-02-09T13:17:04.993Z,9.00
2019-02-09T13:18:05.155Z,9.00